Time;durP1;ratioP1;P1;durP2;ratioP2;P2;SDS_P1;SDS_P2;PMS_P1;PMS_P2;Temp;Humidity;BMP_temperature;BMP_pressure;BME280_temperature;BME280_humidity;BME280_pressure;Samples;Min_cycle;Max_cycle;Signal;HPM_P1;HPM_P2
2021/04/08 00:01:31;;;;;;;0.40;0.30;;;;;;;3.09;95.11;100752.72;5072945;28;20437;-65
2021/04/08 00:03:58;;;;;;;0.40;0.30;;;;;;;3.12;94.66;100744.19;5072895;28;20434;-66
2021/04/08 00:06:24;;;;;;;0.40;0.30;;;;;;;3.10;94.52;100759.69;5072804;28;20449;-66
2021/04/08 00:08:50;;;;;;;0.40;0.30;;;;;;;3.08;93.85;100759.13;5072717;28;20855;-65
2021/04/08 00:11:16;;;;;;;0.40;0.40;;;;;;;3.11;94.37;100753.28;5072557;28;20450;-65
2021/04/08 00:13:42;;;;;;;0.40;0.30;;;;;;;3.06;94.55;100753.22;5072767;28;20445;-66
2021/04/08 00:16:08;;;;;;;0.40;0.30;;;;;;;3.04;94.18;100745.41;5072819;28;20444;-66
2021/04/08 00:18:34;;;;;;;0.67;0.50;;;;;;;3.06;94.09;100755.09;5073047;28;20464;-64
2021/04/08 00:21:01;;;;;;;0.40;0.30;;;;;;;3.09;93.46;100758.06;5072590;28;20437;-66
2021/04/08 00:23:27;;;;;;;0.40;0.30;;;;;;;3.12;93.55;100767.47;5072826;28;20446;-66
2021/04/08 00:25:54;;;;;;;0.40;0.30;;;;;;;3.10;92.62;100769.56;5072409;28;20457;-66
2021/04/08 00:28:21;;;;;;;0.40;0.30;;;;;;;3.11;92.81;100784.59;5072359;28;20477;-66
2021/04/08 00:30:47;;;;;;;0.40;0.30;;;;;;;3.10;92.56;100781.13;5072688;28;20555;-65
2021/04/08 00:33:17;;;;;;;0.40;0.30;;;;;;;3.10;91.95;100786.47;5072674;28;20498;-66
2021/04/08 00:35:44;;;;;;;0.40;0.30;;;;;;;3.07;91.36;100780.78;5075867;28;20437;-66
2021/04/08 00:38:11;;;;;;;0.40;0.30;;;;;;;3.10;91.01;100783.78;5075796;28;20987;-66
2021/04/08 00:40:38;;;;;;;1.40;0.57;;;;;;;3.12;91.32;100786.22;5076175;28;20441;-66
2021/04/08 00:43:04;;;;;;;0.40;0.30;;;;;;;3.08;90.58;100791.25;5076153;28;20494;-66
2021/04/08 00:45:31;;;;;;;0.40;0.30;;;;;;;3.11;90.75;100796.09;5075996;28;20437;-63
2021/04/08 00:47:57;;;;;;;0.40;0.30;;;;;;;3.09;91.29;100803.56;5075676;28;20979;-63
2021/04/08 00:50:24;;;;;;;0.40;0.30;;;;;;;3.10;91.14;100804.34;5075916;28;20476;-66
2021/04/08 00:52:55;;;;;;;0.73;0.60;;;;;;;3.14;91.08;100805.50;5075939;28;20818;-66
2021/04/08 00:55:25;;;;;;;0.40;0.30;;;;;;;3.14;90.89;100817.00;5075948;28;20491;-65
2021/04/08 00:57:52;;;;;;;0.40;0.30;;;;;;;3.16;91.29;100804.19;5075807;28;20820;-65
2021/04/08 01:00:19;;;;;;;0.40;0.30;;;;;;;3.08;90.65;100814.50;5075761;28;20441;-65
2021/04/08 01:02:45;;;;;;;0.40;0.30;;;;;;;3.03;91.47;100799.19;5075794;28;20442;-65
2021/04/08 01:05:11;;;;;;;0.40;0.30;;;;;;;3.07;91.45;100808.34;5075758;28;20445;-65
2021/04/08 01:07:39;;;;;;;0.40;0.30;;;;;;;3.10;91.06;100812.38;5075885;28;20461;-65
2021/04/08 01:10:07;;;;;;;0.87;0.70;;;;;;;3.14;91.21;100808.16;5075719;28;20485;-66
2021/04/08 01:12:34;;;;;;;0.40;0.40;;;;;;;3.11;90.68;100820.19;5075545;28;20453;-66
2021/04/08 01:15:01;;;;;;;0.40;0.30;;;;;;;3.10;90.97;100818.56;5075515;28;20446;-65
2021/04/08 01:17:33;;;;;;;0.40;0.30;;;;;;;3.14;91.63;100822.34;5075447;28;20448;-65
2021/04/08 01:20:33;;;;;;;0.40;0.30;;;;;;;3.17;91.19;100821.88;5075520;28;20417;-66
2021/04/08 01:23:31;;;;;;;0.40;0.30;;;;;;;3.17;91.22;100826.41;5075341;28;20436;-65
2021/04/08 01:26:15;;;;;;;0.40;0.30;;;;;;;3.12;91.69;100821.81;5075176;28;20437;-65
2021/04/08 01:28:45;;;;;;;0.40;0.30;;;;;;;3.11;91.61;100833.56;5075021;28;20579;-66
2021/04/08 01:31:14;;;;;;;0.40;0.30;;;;;;;3.13;92.01;100831.44;5075093;28;20473;-66
2021/04/08 01:33:42;;;;;;;0.40;0.30;;;;;;;3.13;91.72;100831.44;5075120;28;20449;-67
2021/04/08 01:36:11;;;;;;;0.40;0.30;;;;;;;3.10;92.14;100842.66;5074817;28;20997;-67
2021/04/08 01:38:43;;;;;;;0.50;0.40;;;;;;;3.11;92.39;100846.16;5075320;28;20468;-68
2021/04/08 01:41:10;;;;;;;0.40;0.30;;;;;;;3.13;92.27;100844.81;5075011;28;20410;-69
2021/04/08 01:43:40;;;;;;;0.40;0.30;;;;;;;3.12;92.69;100845.09;5075751;28;20447;-68
2021/04/08 01:46:08;;;;;;;0.40;0.30;;;;;;;3.14;91.54;100850.97;5073755;28;20445;-68
2021/04/08 01:48:36;;;;;;;0.40;0.30;;;;;;;3.18;91.61;100846.78;5075044;28;21065;-67
2021/04/08 01:51:05;;;;;;;0.40;0.30;;;;;;;3.20;91.10;100850.03;5074845;28;20478;-69
2021/04/08 01:53:33;;;;;;;0.40;0.40;;;;;;;3.21;90.85;100844.41;5074424;28;20457;-69
2021/04/08 01:56:01;;;;;;;1.83;0.83;;;;;;;3.24;90.95;100851.97;5074823;28;20445;-69
2021/04/08 01:58:29;;;;;;;0.40;0.30;;;;;;;3.26;90.90;100851.72;5074398;28;20841;-69
2021/04/08 02:00:56;;;;;;;0.40;0.30;;;;;;;3.28;91.24;100854.97;5074667;28;20442;-70
2021/04/08 02:03:23;;;;;;;0.40;0.30;;;;;;;3.27;91.65;100859.47;5074684;28;20449;-69
2021/04/08 02:05:50;;;;;;;0.40;0.30;;;;;;;3.28;91.19;100857.66;5074695;28;20441;-69
2021/04/08 02:08:18;;;;;;;0.40;0.30;;;;;;;3.28;91.63;100863.81;5074462;28;20460;-69
2021/04/08 02:10:45;;;;;;;0.40;0.30;;;;;;;3.22;90.96;100856.72;5074486;28;20488;-69
2021/04/08 02:13:14;;;;;;;0.40;0.30;;;;;;;3.26;91.53;100870.44;5074451;28;20446;-69
2021/04/08 02:15:42;;;;;;;0.47;0.37;;;;;;;3.25;90.86;100861.59;5074380;28;20502;-68
2021/04/08 02:18:09;;;;;;;0.40;0.30;;;;;;;3.22;91.06;100872.00;5074269;28;20449;-69
2021/04/08 02:20:36;;;;;;;0.40;0.30;;;;;;;3.17;90.85;100862.03;5073977;28;20441;-69
2021/04/08 02:23:04;;;;;;;0.40;0.30;;;;;;;3.17;91.48;100872.72;5074239;28;20444;-69
2021/04/08 02:25:32;;;;;;;0.40;0.30;;;;;;;3.22;91.69;100877.34;5074178;28;20831;-68
2021/04/08 02:28:00;;;;;;;0.40;0.40;;;;;;;3.26;91.14;100881.97;5073595;28;20499;-68
2021/04/08 02:30:27;;;;;;;0.40;0.30;;;;;;;3.26;90.64;100891.84;5074262;28;20477;-68
2021/04/08 02:32:54;;;;;;;0.40;0.30;;;;;;;3.29;89.88;100886.03;5074143;28;20445;-68
2021/04/08 02:35:21;;;;;;;0.40;0.30;;;;;;;3.27;90.03;100902.31;5074004;28;20441;-68
2021/04/08 02:37:49;;;;;;;0.40;0.30;;;;;;;3.25;89.47;100898.28;5073954;28;20461;-68
2021/04/08 02:40:20;;;;;;;0.63;0.40;;;;;;;3.22;89.20;100904.91;5073806;28;20445;-69
2021/04/08 02:42:46;;;;;;;0.40;0.30;;;;;;;3.21;88.91;100910.53;5073916;28;20430;-69
2021/04/08 02:45:13;;;;;;;1.13;0.80;;;;;;;3.21;88.51;100910.53;5073774;28;20807;-68
2021/04/08 02:47:39;;;;;;;0.47;0.47;;;;;;;3.24;88.41;100912.72;5073710;28;20457;-68
2021/04/08 02:50:08;;;;;;;0.40;0.30;;;;;;;3.22;88.67;100918.31;5073326;28;20568;-68
2021/04/08 02:52:42;;;;;;;0.40;0.30;;;;;;;3.24;88.48;100918.06;5073920;28;20445;-69
2021/04/08 02:55:14;;;;;;;1.33;1.03;;;;;;;3.25;88.31;100915.16;5073723;28;20429;-69
2021/04/08 02:57:52;;;;;;;0.40;0.30;;;;;;;3.22;89.04;100917.50;5073423;28;20461;-67
2021/04/08 03:00:19;;;;;;;2.67;0.90;;;;;;;3.25;89.04;100925.03;5073357;28;20515;-69
2021/04/08 03:02:49;;;;;;;0.40;0.30;;;;;;;3.26;88.56;100915.94;5073359;28;20441;-68
2021/04/08 03:05:17;;;;;;;0.40;0.30;;;;;;;3.21;88.45;100931.94;5073537;28;20409;-69
2021/04/08 03:07:45;;;;;;;0.40;0.40;;;;;;;3.20;88.42;100922.28;5073393;28;20461;-68
2021/04/08 03:10:14;;;;;;;1.03;1.00;;;;;;;3.13;88.43;100933.13;5073419;28;20477;-69
2021/04/08 03:12:43;;;;;;;0.40;0.30;;;;;;;3.18;89.07;100938.56;5073245;28;20499;-69
2021/04/08 03:15:13;;;;;;;1.00;0.50;;;;;;;3.15;88.51;100923.03;5073388;28;20441;-69
2021/04/08 03:17:41;;;;;;;6.07;0.77;;;;;;;3.20;88.04;100939.16;5073691;28;20470;-65
2021/04/08 03:20:11;;;;;;;0.40;0.30;;;;;;;3.21;88.11;100943.44;5073304;28;20460;-66
2021/04/08 03:22:39;;;;;;;0.40;0.30;;;;;;;3.18;87.97;100933.22;5073104;28;20939;-67
2021/04/08 03:25:07;;;;;;;0.40;0.30;;;;;;;3.20;88.28;100931.13;5073382;28;20497;-66
2021/04/08 03:27:36;;;;;;;0.40;0.30;;;;;;;3.16;88.43;100947.91;5072947;28;20989;-66
2021/04/08 03:30:04;;;;;;;0.40;0.30;;;;;;;3.13;89.58;100956.41;5073371;28;20461;-69
2021/04/08 03:32:31;;;;;;;0.40;0.30;;;;;;;3.04;90.02;100948.78;5073562;28;20441;-69
2021/04/08 03:34:57;;;;;;;0.40;0.30;;;;;;;2.97;91.51;100955.38;5073300;28;20812;-69
2021/04/08 03:37:24;;;;;;;0.60;0.50;;;;;;;2.89;91.69;100953.06;5073217;28;20441;-69
2021/04/08 03:39:50;;;;;;;0.40;0.30;;;;;;;2.89;92.76;100963.78;5073160;28;20448;-68
2021/04/08 03:42:17;;;;;;;0.40;0.40;;;;;;;2.89;92.21;100971.81;5073327;28;20433;-70
2021/04/08 03:44:44;;;;;;;0.40;0.30;;;;;;;2.88;92.41;100968.31;5073085;28;20445;-69
2021/04/08 03:47:11;;;;;;;0.40;0.40;;;;;;;2.89;92.81;100966.47;5072784;28;20869;-70
2021/04/08 03:49:38;;;;;;;0.40;0.30;;;;;;;2.85;92.19;100973.34;5072726;28;20854;-70
2021/04/08 03:52:07;;;;;;;0.40;0.30;;;;;;;2.85;92.20;100970.66;5073108;28;20492;-69
2021/04/08 03:54:35;;;;;;;0.40;0.30;;;;;;;2.89;90.62;100975.28;5073171;28;20433;-70
2021/04/08 03:57:02;;;;;;;0.40;0.30;;;;;;;2.81;91.16;100974.88;5072767;28;20962;-69
2021/04/08 03:59:29;;;;;;;0.40;0.30;;;;;;;2.88;90.39;100976.34;5072951;28;20464;-69
2021/04/08 04:01:56;;;;;;;0.40;0.30;;;;;;;2.93;89.93;100991.69;5106922;22;20496;-67
2021/04/08 04:04:24;;;;;;;0.40;0.30;;;;;;;2.93;89.88;100980.97;5093269;28;20440;-69
2021/04/08 04:06:54;;;;;;;0.40;0.30;;;;;;;2.97;89.64;100990.16;5092885;28;20436;-68
2021/04/08 04:09:21;;;;;;;0.40;0.30;;;;;;;2.93;89.74;100984.47;5094046;28;20451;-68
2021/04/08 04:11:48;;;;;;;0.50;0.40;;;;;;;2.98;89.54;100989.09;5096734;28;20460;-68
2021/04/08 04:14:20;;;;;;;0.40;0.30;;;;;;;3.00;89.07;100986.97;5096745;28;20436;-67
2021/04/08 04:16:46;;;;;;;0.40;0.30;;;;;;;2.99;89.15;101004.09;5096922;28;20424;-68
2021/04/08 04:19:12;;;;;;;0.40;0.30;;;;;;;3.02;89.36;101000.94;5097190;28;20432;-68
2021/04/08 04:21:39;;;;;;;0.40;0.30;;;;;;;2.96;89.50;101001.88;5096790;28;20466;-67
2021/04/08 04:24:06;;;;;;;0.40;0.30;;;;;;;2.95;89.51;100984.22;5096755;28;20960;-68
2021/04/08 04:26:32;;;;;;;0.40;0.30;;;;;;;2.94;89.54;101006.66;5096710;28;20440;-68
2021/04/08 04:28:59;;;;;;;0.40;0.30;;;;;;;2.96;89.16;101008.03;5097969;28;20425;-71
2021/04/08 04:31:25;;;;;;;4.30;0.97;;;;;;;3.01;88.81;101005.47;5097394;28;20503;-68
2021/04/08 04:33:51;;;;;;;0.40;0.30;;;;;;;3.02;88.64;101009.78;5096513;28;20995;-68
2021/04/08 04:36:18;;;;;;;0.40;0.30;;;;;;;3.00;89.55;101011.06;5096604;28;20448;-71
2021/04/08 04:38:44;;;;;;;0.40;0.30;;;;;;;2.98;88.45;101022.00;5096804;28;20483;-69
2021/04/08 04:41:10;;;;;;;0.60;0.40;;;;;;;3.06;88.03;101022.69;5096152;28;20456;-70
2021/04/08 04:43:36;;;;;;;0.40;0.30;;;;;;;3.07;88.22;101030.47;5096367;28;20830;-68
2021/04/08 04:46:03;;;;;;;0.97;0.50;;;;;;;3.02;88.34;101027.69;5096383;28;20474;-68
2021/04/08 04:48:30;;;;;;;0.40;0.40;;;;;;;3.10;88.32;101034.50;5095919;28;20813;-69
2021/04/08 04:50:56;;;;;;;0.53;0.53;;;;;;;3.03;88.23;101051.53;5096149;28;20896;-68
2021/04/08 04:53:22;;;;;;;0.40;0.30;;;;;;;3.07;87.83;101038.50;5096145;28;20456;-69
2021/04/08 04:55:48;;;;;;;0.40;0.30;;;;;;;3.06;86.91;101041.41;5096199;28;20463;-68
2021/04/08 04:58:15;;;;;;;0.40;0.30;;;;;;;3.06;86.41;101052.13;5096097;28;20440;-69
2021/04/08 05:00:41;;;;;;;1.63;0.53;;;;;;;3.06;86.83;101055.59;5096122;28;20443;-68
2021/04/08 05:03:07;;;;;;;1.33;0.77;;;;;;;3.11;86.43;101052.22;5095601;28;20460;-68
2021/04/08 05:05:33;;;;;;;0.40;0.30;;;;;;;3.15;86.84;101062.19;5096017;28;20437;-68
2021/04/08 05:07:59;;;;;;;0.40;0.30;;;;;;;3.14;86.21;101060.53;5096024;28;20447;-68
2021/04/08 05:10:25;;;;;;;1.53;0.40;;;;;;;3.10;85.78;101067.47;5095639;28;20475;-68
2021/04/08 05:12:51;;;;;;;0.60;0.50;;;;;;;3.14;85.39;101075.78;5095732;28;20462;-69
2021/04/08 05:15:18;;;;;;;0.40;0.30;;;;;;;3.14;86.18;101073.13;5095746;28;20534;-68
2021/04/08 05:17:44;;;;;;;1.90;1.33;;;;;;;3.16;85.02;101071.03;5095808;28;20456;-68
2021/04/08 05:20:11;;;;;;;0.40;0.30;;;;;;;3.19;85.55;101082.06;5094577;28;20864;-69
2021/04/08 05:22:37;;;;;;;0.40;0.30;;;;;;;3.26;85.11;101088.06;5095113;28;20467;-69
2021/04/08 05:25:04;;;;;;;0.40;0.30;;;;;;;3.31;85.16;101090.03;5095629;28;20445;-70
2021/04/08 05:27:30;;;;;;;0.40;0.30;;;;;;;3.28;85.32;101096.69;5095630;28;20471;-68
2021/04/08 05:29:56;;;;;;;0.53;0.53;;;;;;;3.24;85.15;101092.88;5095145;28;20997;-68
2021/04/08 05:32:23;;;;;;;0.40;0.30;;;;;;;3.24;84.97;101094.75;5095191;28;20464;-69
2021/04/08 05:34:51;;;;;;;0.40;0.30;;;;;;;3.25;85.18;101096.34;5095488;28;20440;-68
2021/04/08 05:37:17;;;;;;;3.23;0.60;;;;;;;3.20;86.02;101107.78;5095385;28;20815;-68
2021/04/08 05:39:43;;;;;;;0.70;0.70;;;;;;;3.26;86.24;101101.47;5095377;28;20521;-69
2021/04/08 05:42:09;;;;;;;0.40;0.30;;;;;;;3.32;85.21;101101.56;5095267;28;20973;-69
2021/04/08 05:44:35;;;;;;;0.40;0.30;;;;;;;3.35;85.29;101126.00;5095357;28;20451;-69
2021/04/08 05:47:01;;;;;;;0.40;0.30;;;;;;;3.39;85.30;101129.00;5095760;28;20445;-69
2021/04/08 05:49:28;;;;;;;0.40;0.30;;;;;;;3.32;84.92;101134.53;5095121;28;20815;-68
2021/04/08 05:51:54;;;;;;;0.40;0.30;;;;;;;3.43;85.14;101122.94;5095180;28;20461;-69
2021/04/08 05:54:20;;;;;;;0.40;0.30;;;;;;;3.46;84.86;101143.88;5095079;28;20436;-69
2021/04/08 05:56:46;;;;;;;1.03;1.03;;;;;;;3.42;84.90;101148.09;5094983;28;20452;-68
2021/04/08 05:59:12;;;;;;;0.53;0.50;;;;;;;3.39;84.79;101167.28;5095071;28;20476;-70
2021/04/08 06:01:38;;;;;;;1.23;0.53;;;;;;;3.46;84.74;101156.47;5094719;28;20468;-69
2021/04/08 06:04:04;;;;;;;0.90;0.63;;;;;;;3.41;83.92;101175.91;5094943;28;20497;-70
2021/04/08 06:06:31;;;;;;;1.50;0.60;;;;;;;3.39;84.04;101161.13;5095013;28;20440;-69
2021/04/08 06:08:57;;;;;;;0.40;0.30;;;;;;;3.42;84.64;101168.69;5094781;28;20444;-69
2021/04/08 06:11:23;;;;;;;0.40;0.30;;;;;;;3.43;84.38;101168.44;5094809;28;20529;-70
2021/04/08 06:13:50;;;;;;;2.13;1.73;;;;;;;3.35;84.71;101182.22;5098413;28;20452;-69
2021/04/08 06:16:16;;;;;;;0.60;0.43;;;;;;;3.31;85.49;101180.25;5096244;28;20822;-69
2021/04/08 06:18:42;;;;;;;0.40;0.30;;;;;;;3.38;85.01;101186.28;5094611;28;20436;-68
2021/04/08 06:21:08;;;;;;;0.40;0.30;;;;;;;3.28;84.93;101193.06;5094261;28;20487;-68
2021/04/08 06:23:35;;;;;;;0.40;0.30;;;;;;;3.36;84.87;101194.53;5094556;28;20437;-68
2021/04/08 06:26:01;;;;;;;0.57;0.50;;;;;;;3.42;84.79;101198.97;5094350;28;20440;-69
2021/04/08 06:28:27;;;;;;;0.40;0.30;;;;;;;3.45;84.86;101200.34;5094393;28;20975;-68
2021/04/08 06:30:53;;;;;;;0.40;0.30;;;;;;;3.45;84.82;101192.28;5094117;28;20480;-68
2021/04/08 06:33:19;;;;;;;0.40;0.33;;;;;;;3.52;84.57;101211.72;5093833;28;20994;-69
2021/04/08 06:35:45;;;;;;;4.47;1.30;;;;;;;3.60;84.72;101197.16;5094204;28;20471;-69
2021/04/08 06:38:11;;;;;;;0.40;0.30;;;;;;;3.67;84.24;101208.50;5094159;28;20945;-68
2021/04/08 06:40:37;;;;;;;0.40;0.30;;;;;;;3.69;83.85;101215.28;5094178;28;20472;-68
2021/04/08 06:43:03;;;;;;;1.77;0.77;;;;;;;3.76;84.09;101228.50;5094194;28;20523;-69
2021/04/08 06:45:31;;;;;;;0.40;0.30;;;;;;;3.76;83.80;101223.16;5094196;28;20869;-69
2021/04/08 06:48:03;;;;;;;0.60;0.60;;;;;;;3.88;83.87;101240.00;5094092;28;20447;-68
2021/04/08 06:50:34;;;;;;;0.40;0.40;;;;;;;3.98;83.34;101234.81;5093924;28;20490;-68
2021/04/08 06:53:02;;;;;;;0.40;0.30;;;;;;;3.97;83.18;101227.03;5094019;28;20470;-69
2021/04/08 06:55:28;;;;;;;0.40;0.30;;;;;;;4.00;82.40;101232.72;5093866;28;20451;-68
2021/04/08 06:57:55;;;;;;;0.40;0.30;;;;;;;3.96;83.01;101242.28;5093919;28;20443;-68
2021/04/08 07:00:22;;;;;;;0.40;0.30;;;;;;;4.03;82.47;101248.31;5093737;28;20443;-68
2021/04/08 07:02:48;;;;;;;0.40;0.30;;;;;;;3.98;82.47;101239.38;5093546;28;20476;-68
2021/04/08 07:05:15;;;;;;;1.30;0.80;;;;;;;3.99;82.76;101241.00;5093682;28;20444;-68
2021/04/08 07:07:41;;;;;;;0.40;0.30;;;;;;;4.00;82.61;101246.13;5093219;28;20828;-68
2021/04/08 07:10:07;;;;;;;0.50;0.50;;;;;;;4.14;82.76;101252.00;5093564;28;20566;-68
2021/04/08 07:12:34;;;;;;;0.40;0.30;;;;;;;4.20;82.54;101258.25;5093564;28;20464;-68
2021/04/08 07:15:01;;;;;;;0.50;0.40;;;;;;;4.13;81.63;101266.44;5093643;28;20440;-66
2021/04/08 07:17:27;;;;;;;0.50;0.47;;;;;;;4.14;81.65;101275.31;5093533;28;20444;-68
2021/04/08 07:19:55;;;;;;;0.50;0.50;;;;;;;4.15;82.13;101269.69;5093228;28;20949;-68
2021/04/08 07:22:21;;;;;;;0.40;0.30;;;;;;;4.18;82.09;101279.94;5093446;28;20464;-68
2021/04/08 07:24:49;;;;;;;0.50;0.47;;;;;;;4.25;81.47;101274.41;5093211;28;20582;-68
2021/04/08 07:27:18;;;;;;;0.40;0.30;;;;;;;4.26;82.03;101287.59;5093354;28;20431;-68
2021/04/08 07:29:48;;;;;;;0.50;0.40;;;;;;;4.45;81.46;101292.75;5092815;28;20998;-68
2021/04/08 07:32:19;;;;;;;0.50;0.50;;;;;;;4.55;80.59;101295.59;5092867;28;21015;-68
2021/04/08 07:34:47;;;;;;;0.40;0.30;;;;;;;4.53;79.97;101298.53;5093377;28;20432;-68
2021/04/08 07:37:13;;;;;;;0.40;0.30;;;;;;;4.58;79.62;101299.66;5093245;28;20444;-68
2021/04/08 07:39:41;;;;;;;0.40;0.40;;;;;;;4.71;79.49;101302.03;5092936;28;20956;-68
2021/04/08 07:42:10;;;;;;;10.50;0.83;;;;;;;4.81;78.63;101312.91;5093185;28;20459;-68
2021/04/08 07:44:50;;;;;;;0.40;0.30;;;;;;;4.68;78.08;101314.03;5095066;28;20456;-68
2021/04/08 07:47:29;;;;;;;0.40;0.30;;;;;;;4.84;78.27;101322.34;5097230;28;20933;-69
2021/04/08 07:49:57;;;;;;;0.40;0.30;;;;;;;4.87;78.30;101321.84;5097373;28;20424;-70
2021/04/08 07:52:29;;;;;;;0.40;0.30;;;;;;;4.89;76.66;101325.94;5097245;28;20448;-70
2021/04/08 07:55:07;;;;;;;0.40;0.30;;;;;;;4.82;77.73;101327.94;5097135;28;20444;-68
2021/04/08 07:57:50;;;;;;;0.40;0.30;;;;;;;4.84;77.60;101335.78;5097993;28;20413;-69
2021/04/08 08:00:18;;;;;;;0.67;0.67;;;;;;;4.92;78.03;101340.75;5100842;28;20932;-69
2021/04/08 08:02:45;;;;;;;0.60;0.50;;;;;;;4.95;77.20;101342.91;5096990;28;20473;-70
2021/04/08 08:05:16;;;;;;;0.40;0.30;;;;;;;5.05;77.28;101341.22;5096838;28;20440;-69
2021/04/08 08:07:42;;;;;;;0.40;0.37;;;;;;;5.02;76.16;101349.75;5097160;28;20875;-69
2021/04/08 08:10:14;;;;;;;0.40;0.30;;;;;;;5.11;76.18;101352.84;5096365;28;20992;-72
2021/04/08 08:12:40;;;;;;;0.40;0.30;;;;;;;5.16;75.59;101366.34;5096936;28;20465;-70
2021/04/08 08:15:17;;;;;;;0.40;0.30;;;;;;;5.22;74.69;101362.69;5096998;28;20444;-68
2021/04/08 08:17:43;;;;;;;0.50;0.40;;;;;;;5.21;74.38;101366.41;5096250;28;20421;-70
2021/04/08 08:20:12;;;;;;;0.40;0.20;;;;;;;5.32;74.75;101367.41;5096767;28;20432;-69
2021/04/08 08:22:40;;;;;;;0.40;0.30;;;;;;;5.34;74.51;101377.88;5096458;28;20840;-69
2021/04/08 08:25:08;;;;;;;0.40;0.27;;;;;;;5.41;73.42;101383.91;5096725;28;20534;-69
2021/04/08 08:27:39;;;;;;;0.40;0.30;;;;;;;5.50;72.25;101385.13;5096466;28;20877;-69
2021/04/08 08:30:08;;;;;;;0.40;0.30;;;;;;;5.60;73.22;101395.19;5097002;28;20507;-70
2021/04/08 08:32:34;;;;;;;0.40;0.30;;;;;;;5.74;72.66;101391.88;5096570;28;20463;-70
2021/04/08 08:35:00;;;;;;;0.40;0.37;;;;;;;5.89;71.77;101403.88;5096614;28;20444;-70
2021/04/08 08:37:28;;;;;;;0.50;0.40;;;;;;;5.94;70.36;101410.19;5096502;28;20436;-70
2021/04/08 08:39:54;;;;;;;0.50;0.50;;;;;;;5.99;69.05;101404.06;5096433;28;20452;-70
2021/04/08 08:42:22;;;;;;;0.50;0.47;;;;;;;5.98;68.43;101414.00;5095976;28;20448;-70
2021/04/08 08:44:49;;;;;;;0.40;0.30;;;;;;;6.00;69.29;101429.88;5096586;28;20444;-70
2021/04/08 08:47:18;;;;;;;0.40;0.30;;;;;;;5.97;67.61;101425.00;5096058;28;20941;-70
2021/04/08 08:49:47;;;;;;;0.40;0.30;;;;;;;5.93;67.89;101418.50;5096065;28;20942;-70
2021/04/08 08:52:18;;;;;;;0.40;0.20;;;;;;;6.05;67.46;101416.50;5096155;28;20462;-70
2021/04/08 08:54:45;;;;;;;0.40;0.30;;;;;;;5.89;65.85;101425.41;5095912;28;20425;-70
2021/04/08 08:57:11;;;;;;;0.40;0.30;;;;;;;5.82;67.11;101434.47;5096382;28;20445;-72
2021/04/08 08:59:39;;;;;;;0.50;0.40;;;;;;;5.77;66.49;101429.03;5096460;28;20494;-74
2021/04/08 09:02:07;;;;;;;0.80;0.60;;;;;;;5.75;65.32;101435.69;5097034;28;20480;-69
2021/04/08 09:04:33;;;;;;;0.40;0.27;;;;;;;5.93;66.55;101432.78;5096166;28;20529;-69
2021/04/08 09:07:05;;;;;;;0.47;0.33;;;;;;;6.12;66.33;101446.72;5095917;28;20520;-69
2021/04/08 09:09:32;;;;;;;0.40;0.30;;;;;;;6.13;64.88;101442.97;5095319;28;20937;-72
2021/04/08 09:12:04;;;;;;;0.40;0.30;;;;;;;6.29;65.64;101435.91;5094208;28;20566;-71
2021/04/08 09:14:31;;;;;;;0.40;0.30;;;;;;;6.27;63.64;101446.09;5094405;28;20463;-70
2021/04/08 09:16:57;;;;;;;1.00;0.60;;;;;;;6.36;64.12;101446.47;5095408;28;20444;-70
2021/04/08 09:19:28;;;;;;;0.40;0.30;;;;;;;6.59;64.06;101448.88;5095388;28;20859;-70
2021/04/08 09:21:57;;;;;;;0.50;0.40;;;;;;;6.72;63.31;101453.84;5094011;28;20456;-71
2021/04/08 09:24:33;;;;;;;0.40;0.30;;;;;;;6.67;62.57;101464.56;5090942;28;20459;-74
2021/04/08 09:27:01;;;;;;;0.40;0.30;;;;;;;6.60;61.98;101460.44;5088951;28;20452;-66
2021/04/08 09:29:44;;;;;;;0.40;0.30;;;;;;;6.56;60.73;101463.66;5089936;28;20452;-68
2021/04/08 09:32:31;;;;;;;0.40;0.30;;;;;;;6.54;60.72;101448.81;5086503;28;20513;-67
2021/04/08 09:35:19;;;;;;;0.40;0.30;;;;;;;6.40;61.26;101452.97;5088595;28;20965;-67
2021/04/08 09:38:15;;;;;;;0.40;0.30;;;;;;;6.51;62.10;101462.81;5074188;28;20445;-67
2021/04/08 09:40:58;;;;;;;0.40;0.30;;;;;;;6.60;62.22;101463.97;5017041;28;20831;-68
2021/04/08 09:43:26;;;;;;;0.40;0.30;;;;;;;6.44;62.04;101454.09;5078908;28;20515;-68
2021/04/08 09:45:57;;;;;;;0.87;0.60;;;;;;;6.56;61.02;101462.84;5075545;28;20456;-67
2021/04/08 09:48:25;;;;;;;0.40;0.30;;;;;;;6.74;60.34;101459.00;5080561;28;20463;-67
2021/04/08 09:50:53;;;;;;;0.40;0.30;;;;;;;6.78;60.38;101450.16;5094306;28;20551;-68
2021/04/08 09:53:21;;;;;;;0.40;0.27;;;;;;;6.93;60.38;101456.75;5090473;28;20506;-67
2021/04/08 09:55:52;;;;;;;0.40;0.30;;;;;;;6.95;58.11;101471.59;5079465;28;20453;-67
2021/04/08 09:58:24;;;;;;;0.40;0.30;;;;;;;6.76;58.83;101464.94;5081238;28;20452;-68
2021/04/08 10:00:52;;;;;;;0.50;0.30;;;;;;;6.74;58.66;101472.47;5087745;28;20444;-68
2021/04/08 10:03:30;;;;;;;0.40;0.30;;;;;;;6.73;60.10;101470.81;5099624;22;21013;-68
2021/04/08 10:05:56;;;;;;;0.40;0.30;;;;;;;6.88;59.15;101481.75;5064174;28;20444;-67
2021/04/08 10:08:24;;;;;;;0.40;0.30;;;;;;;7.01;58.23;101483.22;5073796;28;20441;-68
2021/04/08 10:10:51;;;;;;;0.40;0.30;;;;;;;7.27;57.86;101468.13;5074177;28;20631;-67
2021/04/08 10:13:21;;;;;;;2.00;1.33;;;;;;;7.38;56.31;101490.56;5065502;28;20507;-68
2021/04/08 10:15:49;;;;;;;0.40;0.30;;;;;;;7.34;56.96;101480.28;5050450;28;20460;-68
2021/04/08 10:18:17;;;;;;;0.40;0.30;;;;;;;7.28;56.50;101491.28;5059305;28;20449;-67
2021/04/08 10:20:44;;;;;;;0.40;0.20;;;;;;;7.08;56.38;101486.50;5052975;28;20525;-68
2021/04/08 10:23:10;;;;;;;1.27;1.17;;;;;;;7.07;56.04;101484.91;5048466;28;20824;-68
2021/04/08 10:25:37;;;;;;;0.40;0.30;;;;;;;7.18;55.69;101475.03;5056606;28;20587;-67
2021/04/08 10:28:04;;;;;;;0.40;0.30;;;;;;;7.20;54.90;101470.19;5072801;28;20441;-68
2021/04/08 10:30:35;;;;;;;0.40;0.30;;;;;;;7.44;54.67;101478.78;5072252;28;20520;-68
2021/04/08 10:33:01;;;;;;;0.40;0.30;;;;;;;7.69;54.94;101476.22;5069649;28;20457;-67
2021/04/08 10:35:29;;;;;;;0.40;0.30;;;;;;;7.84;52.75;101480.94;5073457;28;20441;-67
2021/04/08 10:38:00;;;;;;;0.40;0.20;;;;;;;7.68;52.05;101474.63;5073991;28;20450;-66
2021/04/08 10:40:27;;;;;;;0.40;0.30;;;;;;;7.64;53.75;101473.50;5073520;28;20947;-67
2021/04/08 10:42:53;;;;;;;1.20;1.10;;;;;;;7.83;53.21;101476.59;5055241;28;20474;-70
2021/04/08 10:45:19;;;;;;;0.40;0.30;;;;;;;8.03;52.51;101473.22;5053250;28;20990;-68
2021/04/08 10:47:45;;;;;;;0.40;0.30;;;;;;;8.01;51.81;101480.72;5053223;28;20481;-67
2021/04/08 10:50:11;;;;;;;0.40;0.30;;;;;;;8.05;52.74;101484.53;5053749;28;20489;-63
2021/04/08 10:52:39;;;;;;;0.40;0.30;;;;;;;8.08;52.98;101489.41;5052618;28;20501;-66
2021/04/08 10:55:08;;;;;;;0.40;0.30;;;;;;;7.98;52.52;101489.38;5053706;28;20449;-64
2021/04/08 10:57:34;;;;;;;0.60;0.40;;;;;;;7.78;53.96;101488.16;5053651;28;20860;-65
2021/04/08 11:00:01;;;;;;;0.40;0.30;;;;;;;8.05;52.89;101489.94;5052673;28;20450;-65
2021/04/08 11:02:30;;;;;;;1.70;0.80;;;;;;;8.33;52.65;101486.84;5053301;28;20450;-65
2021/04/08 11:05:02;;;;;;;0.40;0.30;;;;;;;8.46;52.24;101480.19;5052842;28;20426;-65
2021/04/08 11:07:34;;;;;;;0.90;0.43;;;;;;;8.28;52.64;101489.53;5049045;28;20492;-64
2021/04/08 11:10:07;;;;;;;2.10;0.60;;;;;;;8.33;53.03;101484.16;5032378;28;20777;-64
2021/04/08 11:12:33;;;;;;;0.40;0.30;;;;;;;8.40;52.05;101496.63;5033621;28;20463;-65
2021/04/08 11:15:01;;;;;;;0.40;0.30;;;;;;;8.56;51.85;101501.00;5032803;28;20975;-66
2021/04/08 11:17:28;;;;;;;0.97;0.40;;;;;;;8.69;50.52;101502.41;5032389;28;20450;-65
2021/04/08 11:19:56;;;;;;;0.87;0.50;;;;;;;9.21;48.43;101509.50;5033098;28;20968;-64
2021/04/08 11:22:25;;;;;;;0.40;0.30;;;;;;;9.00;49.22;101506.00;5032725;28;20439;-66
2021/04/08 11:24:53;;;;;;;0.40;0.30;;;;;;;8.47;48.33;101508.81;5032241;28;20787;-64
2021/04/08 11:27:28;;;;;;;0.40;0.30;;;;;;;8.44;49.15;101524.72;5032284;28;20450;-65
2021/04/08 11:29:55;;;;;;;0.40;0.30;;;;;;;8.20;52.04;101527.00;5033045;28;21002;-68
2021/04/08 11:32:21;;;;;;;0.40;0.30;;;;;;;8.04;53.18;101526.09;5033194;28;20475;-68
2021/04/08 11:34:50;;;;;;;0.40;0.30;;;;;;;7.85;51.53;101528.41;5033371;28;20439;-67
2021/04/08 11:37:17;;;;;;;0.40;0.40;;;;;;;7.71;51.07;101538.81;5032977;28;20453;-66
2021/04/08 11:39:45;;;;;;;0.40;0.30;;;;;;;7.70;53.07;101531.81;5047160;28;20469;-67